Startpagina
METAR-TAF:

METAR-TAF

Vliegvelden :

Luchthaven Helsinki-Vantaa

Helsinki, Finland

breedte: 60-19N, lengte: 024-58E, hoogte: 51 m

Actueel weer

Dit bericht is 16 minuten geleden gemaakt, om 23:20 UTC
Wind 8 kt uit het westnoordwesten
Temperatuur 15°C
Vochtigheid 63%
Druk 1025 hPa
Zicht 10 km of meer
geen wolken onder 1500 m en geen cumulonimbus

METAR: EFHK 262320Z 30008KT CAVOK 15/08 Q1025 NOSIG

Tijdstip: 02:36 (23:36 UTC)

Verwachting

Dit bericht is 3 uur en het 12 minuten geleden gemaakt, om 20:24 UTC
Verwachting geldig van 26 om 21 UTC tot 27 om 21 UTC
Wind 9 kt uit het zuiden
Zicht 10 km of meer
geen wolken onder 1500 m en geen cumulonimbus
Wijzigt naar
van 27 om 01 UTC tot 27 om 03 UTC
Wind 10 kt uit het noordnoordoosten

TAF: EFHK 262024Z 2621/2721 19009KT CAVOK BECMG 2701/2703 02010KT

Waarnemingen en weersverwachtingen van meer dan 4000 vliegvelden (METAR en TAF).

De beschikbare stations zijn de gele en rode punten op de kaart.

Ga met uw muis naar het station om de naam te zien.

Klik dan om waarnemingen en weersverwachtingen te zien.

kaart wijzigen: klik op de groene knoppen met een zwart kruis om in te zoomen, op de groene knop met een streepje om uit te zoomen of op de groene pijlen voor aangrenzende kaarten.


METAR-TAF: